24°C Temp
16°C Dewpoint
61% Humidity
Temperature
26 KM/H
16 MPH
14 KTS
80°
Due East

Wind Speed
Clear
Conditions
Pressure 1013.92 (hPa) - 29.94 (in)
Visibility 6.2 (mi) - 10.0 (km)

Current Conditions
ESMS
Location 25(km)
Metar :ESMS 251150Z 08014KT CAVOK 24/16 Q1014
Sun 25th July 13:50 pm

Airport
  Metar Aviation API Data Provided by https://www.checkwx.com/ PHP scripts by weather34.com ©2021